地図

経路データ

SID SEASON NUMBER BASIN SUBBASIN NAME ISO_TIME NATURE LAT LON WMO_WIND WMO_PRES WMO_AGENCY TRACK_TYPE DIST2LAND LANDFALL IFLAG USA_AGENCY USA_ATCF_ID USA_LAT USA_LON USA_RECORD USA_STATUS USA_WIND USA_PRES USA_SSHS USA_R34_NE USA_R34_SE USA_R34_SW USA_R34_NW USA_R50_NE USA_R50_SE USA_R50_SW USA_R50_NW USA_R64_NE USA_R64_SE USA_R64_SW USA_R64_NW USA_POCI USA_ROCI USA_RMW USA_EYE TOKYO_LAT TOKYO_LON TOKYO_GRADE TOKYO_WIND TOKYO_PRES TOKYO_R50_DIR TOKYO_R50_LONG TOKYO_R50_SHORT TOKYO_R30_DIR TOKYO_R30_LONG TOKYO_R30_SHORT TOKYO_LAND CMA_LAT CMA_LON CMA_CAT CMA_WIND CMA_PRES HKO_LAT HKO_LON HKO_CAT HKO_WIND HKO_PRES NEWDELHI_LAT NEWDELHI_LON NEWDELHI_GRADE NEWDELHI_WIND NEWDELHI_PRES NEWDELHI_CI NEWDELHI_DP NEWDELHI_POCI REUNION_LAT REUNION_LON REUNION_TYPE REUNION_WIND REUNION_PRES REUNION_TNUM REUNION_CI REUNION_RMW REUNION_R34_NE REUNION_R34_SE REUNION_R34_SW REUNION_R34_NW REUNION_R50_NE REUNION_R50_SE REUNION_R50_SW REUNION_R50_NW REUNION_R64_NE REUNION_R64_SE REUNION_R64_SW REUNION_R64_NW BOM_LAT BOM_LON BOM_TYPE BOM_WIND BOM_PRES BOM_TNUM BOM_CI BOM_RMW BOM_R34_NE BOM_R34_SE BOM_R34_SW BOM_R34_NW BOM_R50_NE BOM_R50_SE BOM_R50_SW BOM_R50_NW BOM_R64_NE BOM_R64_SE BOM_R64_SW BOM_R64_NW BOM_ROCI BOM_POCI BOM_EYE BOM_POS_METHOD BOM_PRES_METHOD NADI_LAT NADI_LON NADI_CAT NADI_WIND NADI_PRES WELLINGTON_LAT WELLINGTON_LON WELLINGTON_WIND WELLINGTON_PRES DS824_LAT DS824_LON DS824_STAGE DS824_WIND DS824_PRES TD9636_LAT TD9636_LON TD9636_STAGE TD9636_WIND TD9636_PRES TD9635_LAT TD9635_LON TD9635_WIND TD9635_PRES TD9635_ROCI NEUMANN_LAT NEUMANN_LON NEUMANN_CLASS NEUMANN_WIND NEUMANN_PRES MLC_LAT MLC_LON MLC_CLASS MLC_WIND MLC_PRES USA_GUST BOM_GUST BOM_GUST_PER REUNION_GUST REUNION_GUST_PER USA_SEAHGT USA_SEARAD_NE USA_SEARAD_SE USA_SEARAD_SW USA_SEARAD_NW STORM_SPEED STORM_DIR
1933112N06146 1933 12 WP MM NOT_NAMED 1933-04-21 21:00:00 NR 6.20000 146.300 main 930 930 __________O___ -1 6.20000 146.300 4 30 293
1933112N06146 1933 12 WP MM NOT_NAMED 1933-04-22 00:00:00 NR 6.79656 144.899 main 1015 1015 __________P___ -1 6.79656 144.899 4 30 293
1933112N06146 1933 12 WP MM NOT_NAMED 1933-04-22 03:00:00 NR 7.37293 143.577 main 1115 1115 __________P___ -1 7.37293 143.577 4 27 294
1933112N06146 1933 12 WP MM NOT_NAMED 1933-04-22 06:00:00 NR 7.91250 142.416 main 1161 1161 __________P___ -1 7.91250 142.416 4 23 297
1933112N06146 1933 12 WP MM NOT_NAMED 1933-04-22 09:00:00 NR 8.40000 141.500 main 1178 1178 __________O___ -1 8.40000 141.500 4 18 301
1933112N06146 1933 12 WP MM NOT_NAMED 1933-04-22 12:00:00 NR 8.82683 140.881 main 1203 1203 __________P___ -1 8.82683 140.881 4 13 309
1933112N06146 1933 12 WP MM NOT_NAMED 1933-04-22 15:00:00 NR 9.20687 140.481 main 1231 1226 __________P___ -1 9.20687 140.481 4 10 317
1933112N06146 1933 12 WP MM NOT_NAMED 1933-04-22 18:00:00 NR 9.55865 140.190 main 1259 1254 __________P___ -1 9.55865 140.190 4 9 320
1933112N06146 1933 12 WP MM NOT_NAMED 1933-04-22 21:00:00 NR 9.90000 139.900 main 1278 1278 __________O___ -1 9.90000 139.900 4 10 317
1933112N06146 1933 12 WP MM NOT_NAMED 1933-04-23 00:00:00 NR 10.2766 139.511 main 1306 1302 __________P___ -1 10.2766 139.511 4 11 313
1933112N06146 1933 12 WP MM NOT_NAMED 1933-04-23 03:00:00 NR 10.6435 139.092 main 1324 1324 __________P___ -1 10.6435 139.092 4 11 309
1933112N06146 1933 12 WP MM NOT_NAMED 1933-04-23 06:00:00 NR 10.9887 138.602 main 1352 1312 __________P___ -1 10.9887 138.602 4 13 301
1933112N06146 1933 12 WP MM NOT_NAMED 1933-04-23 09:00:00 NR 11.3000 138.000 main 1312 1241 __________O___ -1 11.3000 138.000 4 15 293
1933112N06146 1933 12 WP MM NOT_NAMED 1933-04-23 12:00:00 NR 11.5698 137.232 main 1233 1153 __________P___ -1 11.5698 137.232 4 17 287
1933112N06146 1933 12 WP MM NOT_NAMED 1933-04-23 15:00:00 NR 11.8035 136.355 main 1153 1063 __________P___ -1 11.8035 136.355 4 18 284
1933112N06146 1933 12 WP MM NOT_NAMED 1933-04-23 18:00:00 NR 12.0103 135.425 main 1052 968 __________P___ -1 12.0103 135.425 4 19 282
1933112N06146 1933 12 WP MM NOT_NAMED 1933-04-23 21:00:00 NR 12.2000 134.500 main 957 864 __________O___ -1 12.2000 134.500 4 19 282
1933112N06146 1933 12 WP MM NOT_NAMED 1933-04-24 00:00:00 NR 12.4062 133.568 main 864 772 __________P___ -1 12.4062 133.568 4 18 282
1933112N06146 1933 12 WP MM NOT_NAMED 1933-04-24 03:00:00 NR 12.5961 132.663 main 772 690 __________P___ -1 12.5961 132.663 4 17 282
1933112N06146 1933 12 WP MM NOT_NAMED 1933-04-24 06:00:00 NR 12.7627 131.852 main 694 623 __________P___ -1 12.7627 131.852 4 15 282
1933112N06146 1933 12 WP MM NOT_NAMED 1933-04-24 09:00:00 NR 12.9000 131.200 main 623 582 __________O___ -1 12.9000 131.200 4 11 283
1933112N06146 1933 12 WP MM NOT_NAMED 1933-04-24 12:00:00 NR 13.0061 130.792 main 582 560 __________P___ -1 13.0061 130.792 4 7 286
1933112N06146 1933 12 WP MM NOT_NAMED 1933-04-24 15:00:00 NR 13.0855 130.542 main 552 541 __________P___ -1 13.0855 130.542 4 4 289
1933112N06146 1933 12 WP MM NOT_NAMED 1933-04-24 18:00:00 NR 13.1472 130.371 main 541 522 __________P___ -1 13.1472 130.371 4 4 289
1933112N06146 1933 12 WP MM NOT_NAMED 1933-04-24 21:00:00 NR 13.2000 130.200 main 522 477 __________O___ -1 13.2000 130.200 4 6 265
1933112N06146 1933 12 WP MM NOT_NAMED 1933-04-25 00:00:00 NR 13.0991 129.789 main 477 432 __________P___ -1 13.0991 129.789 4 8 257
1933112N06146 1933 12 WP MM NOT_NAMED 1933-04-25 03:00:00 NR 13.0154 129.385 main 432 401 __________P___ -1 13.0154 129.385 4 7 268
1933112N06146 1933 12 WP MM NOT_NAMED 1933-04-25 06:00:00 NR 13.0739 129.088 main 403 393 __________P___ -1 13.0739 129.088 4 5 316
1933112N06146 1933 12 WP MM NOT_NAMED 1933-04-25 09:00:00 NR 13.4000 129.000 main 402 402 __________O___ -1 13.4000 129.000 4 11 8
1933112N06146 1933 12 WP MM NOT_NAMED 1933-04-25 12:00:00 NR 14.1577 129.258 main 468 468 __________P___ -1 14.1577 129.258 4 19 22
1933112N06146 1933 12 WP MM NOT_NAMED 1933-04-25 15:00:00 NR 15.1817 129.728 main 564 564 __________P___ -1 15.1817 129.728 4 24 25
1933112N06146 1933 12 WP MM NOT_NAMED 1933-04-25 18:00:00 NR 16.3397 130.311 main 688 688 __________P___ -1 16.3397 130.311 4 26 26
1933112N06146 1933 12 WP MM NOT_NAMED 1933-04-25 21:00:00 NR 17.5000 130.900 main 804 804 __________O___ -1 17.5000 130.900 4 24 23
1933112N06146 1933 12 WP MM NOT_NAMED 1933-04-26 00:00:00 NR 18.4938 131.275 main 898 898 __________P___ -1 18.4938 131.275 4 21 20
1933112N06146 1933 12 WP MM NOT_NAMED 1933-04-26 03:00:00 NR 19.4642 131.644 main 985 985 __________P___ -1 19.4642 131.644 4 21 21
1933112N06146 1933 12 WP MM NOT_NAMED 1933-04-26 06:00:00 NR 20.4026 132.066 main 1051 1051 __________P___ -1 20.4026 132.066 4 21 26
1933112N06146 1933 12 WP MM NOT_NAMED 1933-04-26 09:00:00 NR 21.3000 132.600 main 1099 1016 __________O___ -1 21.3000 132.600 4 22 33
1933112N06146 1933 12 WP MM NOT_NAMED 1933-04-26 12:00:00 NR 22.2206 133.312 main 1016 951 __________P___ -1 22.2206 133.312 4 23 39
1933112N06146 1933 12 WP MM NOT_NAMED 1933-04-26 15:00:00 NR 23.0878 134.145 main 944 908 __________P___ -1 23.0878 134.145 4 23 44
1933112N06146 1933 12 WP MM NOT_NAMED 1933-04-26 18:00:00 NR 23.8610 135.056 main 903 887 __________P___ -1 23.8610 135.056 4 22 50
1933112N06146 1933 12 WP MM NOT_NAMED 1933-04-26 21:00:00 NR 24.5000 136.000 main 892 887 __________O___ -1 24.5000 136.000 4 20 56
1933112N06146 1933 12 WP MM NOT_NAMED 1933-04-27 00:00:00 NR 24.9409 136.847 main 897 894 __________P___ -1 24.9409 136.847 4 17 64
1933112N06146 1933 12 WP MM NOT_NAMED 1933-04-27 03:00:00 NR 25.2557 137.719 main 917 916 __________P___ -1 25.2557 137.719 4 17 71
1933112N06146 1933 12 WP MM NOT_NAMED 1933-04-27 06:00:00 NR 25.5178 138.656 main 925 917 __________P___ -1 25.5178 138.656 4 19 73
1933112N06146 1933 12 WP MM NOT_NAMED 1933-04-27 09:00:00 NR 25.8000 139.700 main 927 925 __________O___ -1 25.8000 139.700 4 21 72
1933112N06146 1933 12 WP MM NOT_NAMED 1933-04-27 12:00:00 NR 26.1617 140.867 main 941 941 __________P___ -1 26.1617 140.867 4 23 71
1933112N06146 1933 12 WP MM NOT_NAMED 1933-04-27 15:00:00 NR 26.5562 142.149 main 946 943 __________P___ -1 26.5562 142.149 4 25 71
1933112N06146 1933 12 WP MM NOT_NAMED 1933-04-27 18:00:00 NR 26.9974 143.532 main 945 943 __________P___ -1 26.9974 143.532 4 27 70
1933112N06146 1933 12 WP MM NOT_NAMED 1933-04-27 21:00:00 NR 27.5000 145.000 main 956 956 __________O___ -1 27.5000 145.000 4 29 68
1933112N06146 1933 12 WP MM NOT_NAMED 1933-04-28 00:00:00 NR 28.0725 146.542 main 979 979 __________P___ -1 28.0725 146.542 4 30 67
1933112N06146 1933 12 WP MM NOT_NAMED 1933-04-28 03:00:00 NR 28.6967 148.148 main 1024 1024 __________P___ -1 28.6967 148.148 4 31 66
1933112N06146 1933 12 WP MM NOT_NAMED 1933-04-28 06:00:00 NR 29.3476 149.805 main 1096 1095 __________P___ -1 29.3476 149.805 4 32 66
1933112N06146 1933 12 WP MM NOT_NAMED 1933-04-28 09:00:00 NR 30.0000 151.500 main 1173 __________O___ -1 30.0000 151.500 4 32 66

デジタル台風データ・検索

IBTrACS Databaseについて

本データベースは、米国NOAAが公開する1842年以降の世界の熱帯低気圧のベストトラックデータアーカイブInternational Best Track Archive for Climate Stewardship (IBTrACS)を、ウェブで閲覧しやすい形式に変換したものです。

最終更新日:2021-11-26